Terminal Aerodrome Forecast
Issued by NWS Goodland, KS

Home | Current Version | Previous Version | Text Only | Print | Product List | Glossary On
Versions: 1 2 3 4 5 6 7 8 9 10 11 12 13 14 15 16 17 18 19
224
FTUS43 KGLD 270315 AAB
TAFGLD
TAF AMD
KGLD 270315Z 2703/2724 31016KT P6SM SCT025 BKN120
     FM270700 35008KT P6SM BKN045
     FM270800 36008KT 5SM BR BKN020
     FM271600 01008KT P6SM VCSH BKN030=

USA.gov is the U.S. government's official web portal to all federal, state and local government web resources and services.